Weather observations for the past three days for
St. Joseph, Rosecrans Memorial Airport
Imperial (Metric)
Date Time (cdt) Wind (mph) Vis. (mi.) Weather Sky Cond. Temperature (ºF) Relative Humidity Wind Chill (°F) Heat Index (°F) Pressure Precipitation (in)
Air Dwpt 6 hour altimeter (in) sea level (mb) 1 hr 3 hr 6 hr
Max. Min.
06 06:53 N 6 10.00 Fair CLR 44.1 30.9 51.1 44.1 60% 41 30.04 1017.2
06 05:53 N 6 10.00 A Few Clouds FEW120 46.9 30.9 54% 45 30.03 1016.9
06 04:53 N 6 10.00 Overcast OVC110 46.9 33.1 59% 45 30 1016.0
06 03:53 N 6 10.00 Overcast OVC095 48 32 54% 46 29.99 1015.7
06 02:53 N 5 10.00 Overcast OVC110 48.9 33.1 55% 48 29.99 1015.4
06 01:53 N 5 10.00 Mostly Cloudy BKN100 BKN120 48.9 34 56% 48 29.97 1014.8
06 00:53 NE 3 10.00 Overcast OVC090 50 34 57 50 54% 29.97 1014.8
05 23:53 N 5 10.00 Overcast SCT065 OVC080 52 32 47% 29.98 1015.2
05 22:53 NW 6 10.00 Overcast OVC070 52 34 50% 29.96 1014.4
05 21:53 Calm 10.00 Overcast OVC100 51.1 39 64% 29.93 1013.6
05 20:53 Calm 10.00 Mostly Cloudy BKN095 53.1 33.1 47% 29.9 1012.6
05 19:53 N 12 G 28 10.00 Light Rain BKN060 OVC075 54 34 47% 29.91 1012.7
05 18:53 N 7 10.00 Overcast OVC095 57 28.9 59 55 34% 29.88 1011.8
05 17:53 N 9 10.00 Overcast OVC090 57.9 28.9 33% 29.88 1011.7
05 16:53 N 17 10.00 Overcast OVC090 59 25 27% 29.88 1011.6
05 15:53 N 12 10.00 Overcast OVC095 59 30 33% 29.89 1011.9
05 14:53 N 9 10.00 Overcast OVC090 59 33.1 38% 29.9 1012.3
05 13:53 N 7 10.00 Overcast OVC090 55.9 37 49% 29.9 1012.5
05 12:53 NW 7 10.00 Overcast OVC080 55.9 37 55.9 51.1 49% 29.91 1012.7
05 11:53 Vrbl 3 10.00 Overcast BKN080 OVC090 53.1 39.9 61% 29.92 1013.0
05 10:53 NW 5 10.00 Overcast OVC075 52 39 61% 29.92 1013.0
05 09:53 S 5 10.00 Overcast OVC085 52 39 61% 29.91 1012.4
05 08:53 N 7 10.00 Overcast BKN090 OVC110 51.1 42.1 71% 29.9 1012.1
05 07:53 NW 7 10.00 Overcast BKN070 OVC090 51.1 39.9 66% 29.91 1012.4
05 06:53 NE 9 10.00 Overcast OVC085 53.1 33.1 57.9 53.1 47% 29.83 1009.5
05 05:53 NE 12 10.00 Overcast OVC085 54 33.1 45% 29.82 1009.2
05 04:53 NE 14 10.00 Overcast OVC090 54 32 43% 29.83 1009.5
05 03:53 NE 10 10.00 Overcast OVC090 55 32 42% 29.83 1009.3
05 02:53 NE 10 10.00 Overcast OVC085 55 33.1 44% 29.81 1008.7
05 01:53 N 13 10.00 Overcast OVC080 57 32 39% 29.8 1008.3
05 00:53 NE 16 10.00 Overcast OVC075 57.9 32 84 57.9 38% 29.76 1007.1
04 23:53 N 28 G 38 10.00 Fair and Windy CLR 60.1 32 35% 29.73 1006.2
04 22:53 N 25 G 33 10.00 Fair and Breezy CLR 66 34 30% 29.7 1005.2
04 21:53 N 17 10.00 Mostly Cloudy BKN110 70 36 29% 29.67 1003.9
04 20:53 NE 16 10.00 A Few Clouds FEW120 73 39.9 30% 29.62 1002.4
04 19:53 SW 6 10.00 Fair CLR 77 44.1 31% 78 29.56 1000.4
04 18:53 NW 10 10.00 Fair CLR 84.9 30.9 89.1 81 14% 82 29.55 1000.1
04 17:53 NW 10 10.00 Fair CLR 84.9 33.1 15% 82 29.55 1000.0
04 16:53 W 12 10.00 Fair CLR 89.1 37 16% 85 29.54 999.7
04 15:53 S 5 10.00 Mostly Cloudy BKN100 84.9 46 26% 82 29.55 1000.0
04 14:53 S 7 10.00 Fair CLR 84.9 48 28% 83 29.57 1000.5
04 13:53 SW 9 10.00 Fair CLR 84 48 29% 82 29.57 1000.6
04 12:53 SW 9 10.00 Fair CLR 81 46.9 82.9 54 30% 80 29.59 1001.2
04 11:53 S 8 10.00 Fair CLR 78.1 46.9 33% 78 29.6 1001.7
04 10:53 SW 12 10.00 Fair CLR 77 48 36% 78 29.61 1002.0
04 09:53 SW 10 10.00 Fair CLR 71.1 48 44% 29.61 1002.1
04 08:53 SW 12 10.00 Fair CLR 69.1 46.9 45% 29.62 1002.3
04 07:53 S 7 10.00 Fair CLR 63 46.9 56% 29.62 1002.6
04 06:53 Calm 10.00 Fair CLR 54 46 63 50 75% 29.62 1002.4
04 05:53 S 3 10.00 Fair CLR 50 45 83% 29.62 1002.5
04 04:53 S 6 10.00 Fair CLR 55 46 72% 29.64 1003.0
04 03:53 SE 8 10.00 Fair CLR 59 45 60% 29.66 1003.9
04 02:53 E 3 10.00 Fair CLR 62.1 44.1 52% 29.69 1004.6
04 01:53 N 6 10.00 Partly Cloudy SCT100 60.1 45 58% 29.71 1005.6
04 00:53 NW 3 10.00 Fair CLR 60.1 44.1 77 57.9 56% 29.73 1006.1
03 23:53 E 7 10.00 Fair CLR 61 44.1 54% 29.74 1006.5
03 22:53 W 5 10.00 Fair CLR 60.1 48.9 67% 29.78 1008.1
03 21:53 Calm 10.00 Fair CLR 62.1 44.1 52% 29.76 1007.5
03 20:53 N 3 10.00 Fair CLR 64 42.1 45% 29.76 1007.4
03 19:53 NE 6 10.00 Fair CLR 69.1 43 39% 29.76 1007.5
03 18:53 N 8 10.00 Fair CLR 77 42.1 80.1 75 29% 78 29.78 1007.8
03 17:53 N 5 10.00 Fair CLR 80.1 37.9 22% 79 29.78 1008.1
03 16:53 W 7 10.00 Fair CLR 79 37 22% 78 29.8 1008.6
03 15:53 Vrbl 6 10.00 Fair CLR 79 37.9 23% 78 29.82 1009.2
03 14:53 SW 7 10.00 Fair CLR 78.1 39.9 26% 78 29.84 1009.9
03 13:53 W 13 10.00 Fair CLR 75.9 39.9 27% 77 29.85 1010.5
03 12:53 W 13 G 18 10.00 Fair CLR 75 41 75.9 52 29% 77 29.87 1011.3
03 11:53 W 20 10.00 Fair CLR 73.9 42.1 32% 29.89 1011.7
03 10:53 SW 17 G 26 10.00 Fair CLR 69.1 42.1 38% 29.89 1012.1
03 09:53 SW 17 G 23 10.00 Fair CLR 64 39.9 41% 29.92 1013.0
03 08:53 SW 9 10.00 Fair CLR 57 37 47% 29.93 1013.4
03 07:53 S 14 10.00 Fair CLR 54 34 47% 29.92 1013.1
Date Time (cdt) Wind (mph) Vis. (mi.) Weather Sky Cond. Air Dwpt Max. Min. Relative Humidity Wind Chill (°F) Heat Index (°F) altimeter (in) sea level (mb) 1 hr 3 hr 6 hr
6 hour
Temperature (ºF) Pressure Precipitation (in)